sensor_id;sensor_type;location;lat;lon;timestamp;P1;durP1;ratioP1;P2;durP2;ratioP2
51602;SDS011;37954;51.980;5.850;2023-03-26T00:00:17;6.67;;;2.10;;
51602;SDS011;37954;51.980;5.850;2023-03-26T00:04:29;4.60;;;2.00;;
51602;SDS011;37954;51.980;5.850;2023-03-26T00:08:44;6.87;;;1.70;;
51602;SDS011;37954;51.980;5.850;2023-03-26T00:12:56;6.13;;;1.80;;
51602;SDS011;37954;51.980;5.850;2023-03-26T00:17:08;4.20;;;1.70;;
51602;SDS011;37954;51.980;5.850;2023-03-26T00:21:20;3.03;;;1.80;;
51602;SDS011;37954;51.980;5.850;2023-03-26T00:25:42;12.80;;;2.30;;
51602;SDS011;37954;51.980;5.850;2023-03-26T00:29:56;7.67;;;1.80;;
51602;SDS011;37954;51.980;5.850;2023-03-26T00:34:10;14.73;;;2.83;;
51602;SDS011;37954;51.980;5.850;2023-03-26T00:38:22;9.93;;;1.97;;
51602;SDS011;37954;51.980;5.850;2023-03-26T00:42:38;10.67;;;2.13;;
51602;SDS011;37954;51.980;5.850;2023-03-26T00:46:49;8.83;;;2.27;;
51602;SDS011;37954;51.980;5.850;2023-03-26T00:51:01;10.63;;;2.13;;
51602;SDS011;37954;51.980;5.850;2023-03-26T00:55:13;13.13;;;2.47;;
51602;SDS011;37954;51.980;5.850;2023-03-26T00:59:26;9.30;;;2.23;;
51602;SDS011;37954;51.980;5.850;2023-03-26T01:03:41;17.97;;;3.43;;
51602;SDS011;37954;51.980;5.850;2023-03-26T01:08:16;8.20;;;2.43;;
51602;SDS011;37954;51.980;5.850;2023-03-26T01:12:34;7.40;;;2.67;;
51602;SDS011;37954;51.980;5.850;2023-03-26T01:16:48;16.27;;;2.50;;
51602;SDS011;37954;51.980;5.850;2023-03-26T01:21:03;18.20;;;3.13;;
51602;SDS011;37954;51.980;5.850;2023-03-26T01:25:19;12.13;;;2.78;;
51602;SDS011;37954;51.980;5.850;2023-03-26T01:34:10;18.93;;;4.70;;
51602;SDS011;37954;51.980;5.850;2023-03-26T01:47:44;16.33;;;3.83;;
51602;SDS011;37954;51.980;5.850;2023-03-26T01:51:57;14.40;;;3.08;;
51602;SDS011;37954;51.980;5.850;2023-03-26T01:56:10;15.45;;;3.50;;
51602;SDS011;37954;51.980;5.850;2023-03-26T02:09:23;19.13;;;4.40;;
51602;SDS011;37954;51.980;5.850;2023-03-26T02:13:39;12.03;;;3.70;;
51602;SDS011;37954;51.980;5.850;2023-03-26T02:17:53;16.27;;;3.93;;
51602;SDS011;37954;51.980;5.850;2023-03-26T02:22:05;15.77;;;4.67;;
51602;SDS011;37954;51.980;5.850;2023-03-26T02:26:22;14.93;;;4.27;;
51602;SDS011;37954;51.980;5.850;2023-03-26T02:30:49;19.63;;;3.80;;
51602;SDS011;37954;51.980;5.850;2023-03-26T02:35:00;17.40;;;3.10;;
51602;SDS011;37954;51.980;5.850;2023-03-26T02:39:13;9.90;;;2.95;;
51602;SDS011;37954;51.980;5.850;2023-03-26T02:43:32;9.67;;;3.17;;
51602;SDS011;37954;51.980;5.850;2023-03-26T02:47:44;16.20;;;4.50;;
51602;SDS011;37954;51.980;5.850;2023-03-26T02:52:29;12.20;;;3.17;;
51602;SDS011;37954;51.980;5.850;2023-03-26T02:56:43;15.63;;;3.27;;
51602;SDS011;37954;51.980;5.850;2023-03-26T03:01:13;19.33;;;3.92;;
51602;SDS011;37954;51.980;5.850;2023-03-26T03:05:35;14.67;;;3.83;;
51602;SDS011;37954;51.980;5.850;2023-03-26T03:10:11;20.03;;;4.03;;
51602;SDS011;37954;51.980;5.850;2023-03-26T03:14:43;14.90;;;4.00;;
51602;SDS011;37954;51.980;5.850;2023-03-26T03:18:54;22.70;;;4.63;;
51602;SDS011;37954;51.980;5.850;2023-03-26T03:23:18;18.27;;;4.93;;
51602;SDS011;37954;51.980;5.850;2023-03-26T03:27:32;17.47;;;5.10;;
51602;SDS011;37954;51.980;5.850;2023-03-26T03:31:51;20.70;;;4.93;;
51602;SDS011;37954;51.980;5.850;2023-03-26T03:36:21;17.57;;;5.17;;
51602;SDS011;37954;51.980;5.850;2023-03-26T03:40:43;20.43;;;4.40;;
51602;SDS011;37954;51.980;5.850;2023-03-26T03:44:55;15.63;;;4.67;;
51602;SDS011;37954;51.980;5.850;2023-03-26T03:49:27;22.00;;;5.40;;
51602;SDS011;37954;51.980;5.850;2023-03-26T03:53:40;16.20;;;4.87;;
51602;SDS011;37954;51.980;5.850;2023-03-26T03:57:54;19.63;;;5.00;;
51602;SDS011;37954;51.980;5.850;2023-03-26T04:02:08;15.30;;;3.93;;
51602;SDS011;37954;51.980;5.850;2023-03-26T04:06:30;14.77;;;4.57;;
51602;SDS011;37954;51.980;5.850;2023-03-26T04:10:43;9.90;;;2.93;;
51602;SDS011;37954;51.980;5.850;2023-03-26T04:14:55;14.50;;;3.07;;
51602;SDS011;37954;51.980;5.850;2023-03-26T04:19:07;17.97;;;3.00;;
51602;SDS011;37954;51.980;5.850;2023-03-26T04:23:19;11.07;;;3.13;;
51602;SDS011;37954;51.980;5.850;2023-03-26T04:27:37;13.10;;;3.40;;
51602;SDS011;37954;51.980;5.850;2023-03-26T04:32:22;16.70;;;3.13;;
51602;SDS011;37954;51.980;5.850;2023-03-26T04:36:41;7.75;;;2.90;;
51602;SDS011;37954;51.980;5.850;2023-03-26T04:40:53;8.57;;;2.37;;
51602;SDS011;37954;51.980;5.850;2023-03-26T04:45:25;17.83;;;3.13;;
51602;SDS011;37954;51.980;5.850;2023-03-26T04:49:40;11.37;;;3.03;;
51602;SDS011;37954;51.980;5.850;2023-03-26T04:53:53;14.43;;;3.33;;
51602;SDS011;37954;51.980;5.850;2023-03-26T04:58:19;12.17;;;2.93;;
51602;SDS011;37954;51.980;5.850;2023-03-26T05:02:41;15.43;;;4.43;;
51602;SDS011;37954;51.980;5.850;2023-03-26T05:06:54;11.13;;;2.50;;
51602;SDS011;37954;51.980;5.850;2023-03-26T05:11:16;17.27;;;3.37;;
51602;SDS011;37954;51.980;5.850;2023-03-26T05:15:28;14.77;;;2.90;;
51602;SDS011;37954;51.980;5.850;2023-03-26T05:19:40;10.87;;;3.20;;
51602;SDS011;37954;51.980;5.850;2023-03-26T05:23:52;13.07;;;3.10;;
51602;SDS011;37954;51.980;5.850;2023-03-26T05:28:06;29.17;;;10.20;;
51602;SDS011;37954;51.980;5.850;2023-03-26T05:32:35;24.60;;;5.87;;
51602;SDS011;37954;51.980;5.850;2023-03-26T05:36:47;15.73;;;4.33;;
51602;SDS011;37954;51.980;5.850;2023-03-26T05:41:21;18.10;;;3.20;;
51602;SDS011;37954;51.980;5.850;2023-03-26T05:45:34;11.37;;;2.67;;
51602;SDS011;37954;51.980;5.850;2023-03-26T05:49:59;10.33;;;3.40;;
51602;SDS011;37954;51.980;5.850;2023-03-26T05:54:11;12.07;;;2.67;;
51602;SDS011;37954;51.980;5.850;2023-03-26T05:58:41;11.83;;;3.07;;
51602;SDS011;37954;51.980;5.850;2023-03-26T06:03:27;7.43;;;2.77;;
51602;SDS011;37954;51.980;5.850;2023-03-26T06:08:00;13.67;;;2.90;;
51602;SDS011;37954;51.980;5.850;2023-03-26T06:12:20;9.93;;;2.37;;
51602;SDS011;37954;51.980;5.850;2023-03-26T06:16:32;17.27;;;3.70;;
51602;SDS011;37954;51.980;5.850;2023-03-26T06:21:16;11.90;;;3.77;;
51602;SDS011;37954;51.980;5.850;2023-03-26T06:25:33;18.60;;;4.23;;
51602;SDS011;37954;51.980;5.850;2023-03-26T06:29:57;15.57;;;4.00;;
51602;SDS011;37954;51.980;5.850;2023-03-26T06:34:20;15.17;;;3.80;;
51602;SDS011;37954;51.980;5.850;2023-03-26T06:38:32;11.13;;;2.60;;
51602;SDS011;37954;51.980;5.850;2023-03-26T06:42:46;13.67;;;2.90;;
51602;SDS011;37954;51.980;5.850;2023-03-26T06:47:24;18.07;;;4.67;;
51602;SDS011;37954;51.980;5.850;2023-03-26T06:52:08;11.30;;;3.00;;
51602;SDS011;37954;51.980;5.850;2023-03-26T06:56:22;10.10;;;2.80;;
51602;SDS011;37954;51.980;5.850;2023-03-26T07:01:06;12.53;;;3.70;;
51602;SDS011;37954;51.980;5.850;2023-03-26T07:05:37;14.50;;;2.87;;
51602;SDS011;37954;51.980;5.850;2023-03-26T07:10:09;10.50;;;3.50;;
51602;SDS011;37954;51.980;5.850;2023-03-26T07:14:32;17.10;;;3.63;;
51602;SDS011;37954;51.980;5.850;2023-03-26T07:19:10;14.53;;;3.70;;
51602;SDS011;37954;51.980;5.850;2023-03-26T07:23:24;14.30;;;3.10;;
51602;SDS011;37954;51.980;5.850;2023-03-26T07:37:35;14.80;;;3.40;;
51602;SDS011;37954;51.980;5.850;2023-03-26T07:47:22;8.73;;;3.63;;
51602;SDS011;37954;51.980;5.850;2023-03-26T07:51:57;9.90;;;2.90;;
51602;SDS011;37954;51.980;5.850;2023-03-26T07:56:33;11.60;;;3.17;;
51602;SDS011;37954;51.980;5.850;2023-03-26T08:05:46;18.57;;;4.10;;
51602;SDS011;37954;51.980;5.850;2023-03-26T08:10:20;13.37;;;4.50;;
51602;SDS011;37954;51.980;5.850;2023-03-26T08:14:48;10.53;;;3.00;;
51602;SDS011;37954;51.980;5.850;2023-03-26T08:23:50;11.60;;;3.30;;
51602;SDS011;37954;51.980;5.850;2023-03-26T08:28:28;17.20;;;3.20;;
51602;SDS011;37954;51.980;5.850;2023-03-26T08:37:47;12.60;;;2.97;;
51602;SDS011;37954;51.980;5.850;2023-03-26T11:46:20;10.45;;;5.28;;
51602;SDS011;37954;51.980;5.850;2023-03-26T14:54:53;3.05;;;1.45;;
51602;SDS011;37954;51.980;5.850;2023-03-26T15:28:26;3.65;;;1.48;;
51602;SDS011;37954;51.980;5.850;2023-03-26T15:42:36;9.85;;;2.15;;
51602;SDS011;37954;51.980;5.850;2023-03-26T16:00:40;8.70;;;3.25;;
51602;SDS011;37954;51.980;5.850;2023-03-26T16:14:10;5.40;;;1.50;;
51602;SDS011;37954;51.980;5.850;2023-03-26T16:18:35;8.38;;;1.85;;
51602;SDS011;37954;51.980;5.850;2023-03-26T16:22:55;10.75;;;2.90;;
51602;SDS011;37954;51.980;5.850;2023-03-26T16:31:25;3.83;;;1.40;;
51602;SDS011;37954;51.980;5.850;2023-03-26T16:48:52;7.20;;;2.30;;
51602;SDS011;37954;51.980;5.850;2023-03-26T16:53:23;5.23;;;1.90;;
51602;SDS011;37954;51.980;5.850;2023-03-26T16:57:42;6.50;;;1.77;;
51602;SDS011;37954;51.980;5.850;2023-03-26T17:02:06;7.90;;;2.00;;
51602;SDS011;37954;51.980;5.850;2023-03-26T17:06:35;3.60;;;1.97;;
51602;SDS011;37954;51.980;5.850;2023-03-26T17:11:00;7.72;;;2.33;;
51602;SDS011;37954;51.980;5.850;2023-03-26T17:16:08;6.95;;;2.70;;
51602;SDS011;37954;51.980;5.850;2023-03-26T17:24:45;7.17;;;2.17;;
51602;SDS011;37954;51.980;5.850;2023-03-26T17:33:33;2.93;;;1.07;;
51602;SDS011;37954;51.980;5.850;2023-03-26T17:37:47;4.37;;;1.10;;
51602;SDS011;37954;51.980;5.850;2023-03-26T17:42:09;4.00;;;1.73;;
51602;SDS011;37954;51.980;5.850;2023-03-26T17:46:40;6.03;;;1.70;;
51602;SDS011;37954;51.980;5.850;2023-03-26T17:50:58;4.47;;;1.73;;
51602;SDS011;37954;51.980;5.850;2023-03-26T17:55:19;4.57;;;1.77;;
51602;SDS011;37954;51.980;5.850;2023-03-26T17:59:36;6.60;;;1.43;;
51602;SDS011;37954;51.980;5.850;2023-03-26T18:03:50;7.73;;;2.83;;
51602;SDS011;37954;51.980;5.850;2023-03-26T18:17:47;8.80;;;4.10;;
51602;SDS011;37954;51.980;5.850;2023-03-26T18:22:03;11.87;;;3.83;;
51602;SDS011;37954;51.980;5.850;2023-03-26T18:26:18;9.03;;;2.93;;
51602;SDS011;37954;51.980;5.850;2023-03-26T18:30:33;6.63;;;2.77;;
51602;SDS011;37954;51.980;5.850;2023-03-26T18:35:14;4.60;;;1.40;;
51602;SDS011;37954;51.980;5.850;2023-03-26T18:39:29;4.40;;;1.37;;
51602;SDS011;37954;51.980;5.850;2023-03-26T18:43:40;11.20;;;1.63;;
51602;SDS011;37954;51.980;5.850;2023-03-26T18:47:57;5.43;;;2.30;;
51602;SDS011;37954;51.980;5.850;2023-03-26T18:52:12;3.63;;;1.90;;
51602;SDS011;37954;51.980;5.850;2023-03-26T18:56:34;3.73;;;2.00;;
51602;SDS011;37954;51.980;5.850;2023-03-26T19:00:47;13.13;;;4.93;;
51602;SDS011;37954;51.980;5.850;2023-03-26T19:05:03;4.03;;;2.60;;
51602;SDS011;37954;51.980;5.850;2023-03-26T19:09:15;5.70;;;2.53;;
51602;SDS011;37954;51.980;5.850;2023-03-26T19:13:42;13.40;;;3.30;;
51602;SDS011;37954;51.980;5.850;2023-03-26T19:17:57;4.77;;;2.20;;
51602;SDS011;37954;51.980;5.850;2023-03-26T19:22:17;7.87;;;2.67;;
51602;SDS011;37954;51.980;5.850;2023-03-26T19:26:31;6.80;;;2.27;;
51602;SDS011;37954;51.980;5.850;2023-03-26T19:30:43;7.20;;;2.10;;
51602;SDS011;37954;51.980;5.850;2023-03-26T19:34:56;4.47;;;1.40;;
51602;SDS011;37954;51.980;5.850;2023-03-26T19:39:10;5.47;;;1.87;;
51602;SDS011;37954;51.980;5.850;2023-03-26T19:43:23;7.00;;;2.10;;
51602;SDS011;37954;51.980;5.850;2023-03-26T19:47:38;7.87;;;2.30;;
51602;SDS011;37954;51.980;5.850;2023-03-26T19:52:02;3.57;;;1.50;;
51602;SDS011;37954;51.980;5.850;2023-03-26T19:56:21;3.67;;;1.37;;
51602;SDS011;37954;51.980;5.850;2023-03-26T20:00:33;4.80;;;1.77;;
51602;SDS011;37954;51.980;5.850;2023-03-26T20:04:45;4.40;;;1.53;;
51602;SDS011;37954;51.980;5.850;2023-03-26T20:08:57;7.00;;;2.87;;
51602;SDS011;37954;51.980;5.850;2023-03-26T20:13:13;6.67;;;2.10;;
51602;SDS011;37954;51.980;5.850;2023-03-26T20:17:26;4.10;;;1.73;;
51602;SDS011;37954;51.980;5.850;2023-03-26T20:21:41;2.80;;;1.57;;
51602;SDS011;37954;51.980;5.850;2023-03-26T20:25:53;6.00;;;2.10;;
51602;SDS011;37954;51.980;5.850;2023-03-26T20:30:05;5.20;;;2.07;;
51602;SDS011;37954;51.980;5.850;2023-03-26T20:34:21;4.13;;;1.67;;
51602;SDS011;37954;51.980;5.850;2023-03-26T20:38:34;4.50;;;1.70;;
51602;SDS011;37954;51.980;5.850;2023-03-26T20:42:50;4.27;;;1.57;;
51602;SDS011;37954;51.980;5.850;2023-03-26T20:47:02;5.67;;;2.30;;
51602;SDS011;37954;51.980;5.850;2023-03-26T20:51:14;7.60;;;2.10;;
51602;SDS011;37954;51.980;5.850;2023-03-26T20:55:26;6.27;;;1.77;;
51602;SDS011;37954;51.980;5.850;2023-03-26T20:59:38;5.27;;;1.37;;
51602;SDS011;37954;51.980;5.850;2023-03-26T21:03:50;4.50;;;1.47;;
51602;SDS011;37954;51.980;5.850;2023-03-26T21:08:02;6.10;;;1.50;;
51602;SDS011;37954;51.980;5.850;2023-03-26T21:16:38;4.70;;;1.37;;
51602;SDS011;37954;51.980;5.850;2023-03-26T21:20:54;5.17;;;1.47;;
51602;SDS011;37954;51.980;5.850;2023-03-26T21:30:05;7.83;;;1.67;;
51602;SDS011;37954;51.980;5.850;2023-03-26T21:34:21;8.27;;;1.70;;
51602;SDS011;37954;51.980;5.850;2023-03-26T21:38:33;8.60;;;1.87;;
51602;SDS011;37954;51.980;5.850;2023-03-26T21:42:47;4.20;;;1.10;;
51602;SDS011;37954;51.980;5.850;2023-03-26T21:47:01;5.23;;;1.50;;
51602;SDS011;37954;51.980;5.850;2023-03-26T21:51:13;7.50;;;1.67;;
51602;SDS011;37954;51.980;5.850;2023-03-26T21:55:25;2.63;;;1.40;;
51602;SDS011;37954;51.980;5.850;2023-03-26T22:08:36;2.23;;;1.00;;
51602;SDS011;37954;51.980;5.850;2023-03-26T22:12:52;6.67;;;1.27;;
51602;SDS011;37954;51.980;5.850;2023-03-26T22:17:04;6.70;;;1.23;;
51602;SDS011;37954;51.980;5.850;2023-03-26T22:21:16;6.93;;;1.37;;
51602;SDS011;37954;51.980;5.850;2023-03-26T22:25:28;8.17;;;1.20;;
51602;SDS011;37954;51.980;5.850;2023-03-26T22:29:40;4.93;;;1.33;;
51602;SDS011;37954;51.980;5.850;2023-03-26T22:33:53;3.33;;;1.00;;
51602;SDS011;37954;51.980;5.850;2023-03-26T22:38:05;3.57;;;1.87;;
51602;SDS011;37954;51.980;5.850;2023-03-26T22:42:17;3.47;;;1.00;;
51602;SDS011;37954;51.980;5.850;2023-03-26T22:46:29;5.83;;;1.33;;
51602;SDS011;37954;51.980;5.850;2023-03-26T22:50:41;4.77;;;1.20;;
51602;SDS011;37954;51.980;5.850;2023-03-26T22:54:53;4.40;;;1.07;;
51602;SDS011;37954;51.980;5.850;2023-03-26T22:59:06;3.60;;;1.13;;
51602;SDS011;37954;51.980;5.850;2023-03-26T23:03:18;5.77;;;1.20;;
51602;SDS011;37954;51.980;5.850;2023-03-26T23:07:46;3.63;;;0.97;;
51602;SDS011;37954;51.980;5.850;2023-03-26T23:11:59;3.27;;;0.90;;
51602;SDS011;37954;51.980;5.850;2023-03-26T23:16:12;3.13;;;0.77;;
51602;SDS011;37954;51.980;5.850;2023-03-26T23:20:24;13.03;;;1.37;;
51602;SDS011;37954;51.980;5.850;2023-03-26T23:24:38;4.17;;;2.23;;
51602;SDS011;37954;51.980;5.850;2023-03-26T23:28:50;7.10;;;1.13;;
51602;SDS011;37954;51.980;5.850;2023-03-26T23:33:02;4.57;;;1.30;;
51602;SDS011;37954;51.980;5.850;2023-03-26T23:37:14;3.73;;;1.10;;
51602;SDS011;37954;51.980;5.850;2023-03-26T23:41:33;4.03;;;0.90;;
51602;SDS011;37954;51.980;5.850;2023-03-26T23:45:46;4.47;;;1.20;;
51602;SDS011;37954;51.980;5.850;2023-03-26T23:50:02;3.70;;;1.17;;
51602;SDS011;37954;51.980;5.850;2023-03-26T23:54:15;3.73;;;1.00;;
51602;SDS011;37954;51.980;5.850;2023-03-26T23:58:27;5.73;;;1.67;;
